ADDS METAR Data INFO
IDs: Format: Raw Decoded Include TAF

Data at: 2256 UTC 16 Jan 2018

KRQE 162253Z AUTO VRB06KT 10SM CLR 09/M07 A3027 RMK AO2 SLP234 T00891067 TSNO
KRQE 162153Z AUTO VRB05KT 10SM CLR 10/M06 A3027 RMK AO2 SLP228 T01001061 TSNO
KRQE 162053Z AUTO VRB04KT 10SM CLR 09/M06 A3029 RMK AO2 SLP236 T00891056 56022 TSNO
KRQE 161953Z AUTO VRB04KT 10SM CLR 07/M06 A3031 RMK AO2 SLP242 T00721056 TSNO
KRQE 161753Z AUTO 23004KT 10SM CLR 03/M04 A3037 RMK AO2 SLP268 T00331044 10033 21083 50008 TSNO
KRQE 161653Z AUTO 00000KT 10SM CLR 00/M04 A3037 RMK AO2 SLP266 T00001044 TSNO
KRQE 161553Z AUTO 00000KT 10SM CLR M03/M06 A3035 RMK AO2 SLP273 T10331061 TSNO
KRQE 161453Z AUTO 00000KT 10SM CLR M07/M09 A3034 RMK AO2 SLP275 T10721089 53014 TSNO
KRQE 161353Z AUTO 00000KT 10SM CLR M08/M09 A3032 RMK AO2 SLP262 T10781094 TSNO
KRQE 161253Z AUTO 00000KT 10SM CLR M06/M08 A3030 RMK AO2 SLP248 T10611083 TSNO
KRQE 161153Z AUTO 00000KT 10SM CLR M07/M08 A3029 RMK AO2 SLP236 T10671083 11011 21078 58001 TSNO
KRQE 161053Z AUTO 10SM CLR M07/M08 A3030 RMK AO2 SLP230 T10671083 TSNO
KRQE 160953Z AUTO 00000KT 10SM CLR M06/M08 A3029 RMK AO2 SLP227 T10611083 TSNO
KRQE 160853Z AUTO 00000KT 10SM CLR M06/M08 A3029 RMK AO2 SLP229 T10611078 53007 TSNO
KRQE 160753Z AUTO 00000KT 10SM CLR M03/M06 A3028 RMK AO2 SLP220 T10331061 TSNO
KRQE 160653Z AUTO 00000KT 10SM CLR M04/M07 A3028 RMK AO2 SLP221 T10391072 401441083 TSNO
KRQE 160553Z AUTO 21004KT 10SM CLR M02/M07 A3027 RMK AO2 SLP226 T10171067 10100 21022 53013 TSNO
KRQE 160453Z AUTO 00000KT 10SM CLR 03/M05 A3025 RMK AO2 SLP221 T00281050 TSNO
KRQE 160353Z AUTO 00000KT 10SM CLR 01/M05 A3023 RMK AO2 SLP230 T00111050 TSNO
KRQE 160253Z AUTO 00000KT 10SM CLR 03/M06 A3022 RMK AO2 SLP233 T00281056 51007 TSNO
KRQE 160153Z AUTO 35003KT 10SM CLR 06/M06 A3022 RMK AO2 SLP224 T00561056 TSNO
KRQE 160053Z AUTO 35004KT 10SM CLR 07/M05 A3021 RMK AO2 SLP216 T00721050 TSNO
KRQE 152353Z AUTO 31006KT 10SM CLR 10/M06 A3020 RMK AO2 SLP203 T01001056 10144 20061 53013 TSNO
KRQE 152253Z AUTO 29009KT 10SM CLR 13/M05 A3017 RMK AO2 SLP189 T01281050 TSNO
KRQE 152153Z AUTO 27009KT 10SM CLR 14/M05 A3016 RMK AO2 SLP177 T01391050 TSNO
KRQE 152053Z AUTO 00000KT 10SM CLR 13/M06 A3015 RMK AO2 SLP175 T01281056 56029 TSNO
KRQE 151953Z AUTO 26003KT 10SM CLR 12/M05 A3017 RMK AO2 SLP187 T01221050 TSNO
KRQE 151853Z AUTO 36003KT 10SM CLR 11/M04 A3022 RMK AO2 SLP205 T01111044 TSNO
KRQE 151753Z AUTO 00000KT 10SM CLR 06/M04 A3025 RMK AO2 SLP229 T00561044 10056 21083 58001 TSNO
KRQE 151653Z AUTO 00000KT 10SM CLR 01/M04 A3027 RMK AO2 SLP240 T00111044 TSNO
KRQE 151553Z AUTO 00000KT 10SM CLR M03/M06 A3027 RMK AO2 SLP255 T10331061 TSNO
KRQE 151453Z AUTO 00000KT 10SM CLR M07/M09 A3026 RMK AO2 SLP257 T10721094 55000 TSNO
KRQE 151353Z AUTO 00000KT 10SM CLR M08/M09 A3026 RMK AO2 SLP246 T10781094 TSNO
KRQE 151253Z AUTO 00000KT 10SM CLR M08/M09 A3025 RMK AO2 SLP232 T10781094 TSNO
KRQE 151153Z AUTO 00000KT 10SM CLR M07/M08 A3026 RMK AO2 SLP222 T10671083 11039 21083 58010 TSNO